Pease, Minnesota
Current Conditions -  °F | °C
As of 2:14 PM on Wednesday 28 Jan 2015 (Local Time) from KPNM Reporting Station
Haze Haze  
Wind Chill: 23°   Ceiling: 1000
Heat Index: 30°   Visibility: 4mi
Dew Point: 27°   Wind: 8mph
Humidity: 86%   Direction: 140°SE
Pressure: 29.82"   Gusts: NA
Location:  45.7°N, 93.65°W
Report Text: KPNM 282014Z AUTO 14007KT 4SM HZ OVC010 M01/M03 A2982 RMK AO2
Loading
Personal Weather Stations






























Interactive Weather Map New forecast layout! Learn more

10-Day Weather Forecast

Advertisements
Track Severe Weather on mobile